Amber Beverly — VRHK5 — position and weather

sailwx.info

Track history (hours):
 
Tides and Currents Weather Stations Pressure Air Temp Water Temp Dewpoint Dewpoint Depression Visibility Wind Speed Wind Dir Waves Ship Positions

Amber Beverly

Last reported at 2017-Jul-27 17:05 UTC. Time now 2017-Aug-18 05:08 UTC.
Position N 30°38' E 123°37'.
Warning: this ship's position is 21 days out of date.

Length 190 m; draft 9.3 m.

Type: Cargo ship. MMSI: 477317100.

Date/timePositionNaut miles runAvg speedWind from/ knotsBaromVisibWave heightAir tempDewpointWater temp
2017-Jul-27 17:05N 30°38' E 123°37'612.3
2017-Jul-27 16:37N 30°42' E 123°32'512.3
2017-Jul-27 16:15N 30°45' E 123°28'512.3
2017-Jul-27 15:49N 30°48' E 123°23'612.4
2017-Jul-27 15:19N 30°51' E 123°16'712.5
2017-Jul-27 14:46N 30°54' E 123°09'1112.9
2017-Jul-27 13:53N 30°58' E 122°57'613.2
2017-Jul-27 13:27N 31°00' E 122°51'614.0
2017-Jul-27 13:00N 31°04' E 122°44'713.7
2017-Jul-27 12:30N 31°05' E 122°37'5 9.9
2017-Jul-27 11:58N 31°05' E 122°30'4 7.6
2017-Jul-27 11:30N 31°05' E 122°26'510.1
2017-Jul-27 11:00N 31°06' E 122°21'612.7
2017-Jul-27 10:30N 31°09' E 122°14'714.3
2017-Jul-27 10:00N 31°13' E 122°07'713.6
2017-Jul-27 09:30N 31°15' E 121°60'511.0
2017-Jul-27 09:01N 31°16' E 121°53'713.7
2017-Jul-27 08:30N 31°18' E 121°46'5 9.1
2017-Jul-27 08:00N 31°20' E 121°41'510.7
2017-Jul-27 07:30N 31°23' E 121°35'4 8.8
2017-Jul-27 07:00N 31°25' E 121°31'3 6.6
2017-Jul-27 06:30N 31°27' E 121°28'3 6.2
2017-Jul-27 06:00N 31°30' E 121°26'611.2
2017-Jul-27 05:30N 31°33' E 121°20'713.2
2017-Jul-27 05:01N 31°38' E 121°15'714.7
2017-Jul-27 04:30N 31°42' E 121°08'814.3
2017-Jul-27 03:58N 31°46' E 121°01'912.5
2017-Jul-27 03:16N 31°52' E 120°53'1511.6
2017-Jul-27 01:56N 31°60' E 120°37'613.9
2017-Jul-27 01:30N 32°02' E 120°31'3 7.0
2017-Jul-27 01:00N 31°60' E 120°27'3 6.5
2017-Jul-27 00:30N 31°58' E 120°24'0 0.0
2017-Jul-26 22:14N 31°58' E 120°24'0 0.0
2017-Jul-26 22:00N 31°58' E 120°24'0 0.0
2017-Jul-26 21:30N 31°58' E 120°24'0 0.0
2017-Jul-26 20:18N 31°58' E 120°24'0 0.0
2017-Jul-26 19:48N 31°58' E 120°24'0 0.0
2017-Jul-26 19:24N 31°58' E 120°24'0 0.0
2017-Jul-26 18:48N 31°58' E 120°24'0 0.0
2017-Jul-26 18:17N 31°58' E 120°24'0 0.0
2017-Jul-26 17:48N 31°58' E 120°24'0 0.0
2017-Jul-26 17:29N 31°58' E 120°24'0 0.0
2017-Jul-26 16:59N 31°58' E 120°24'0 0.0
2017-Jul-26 16:06N 31°58' E 120°24'0 0.0
2017-Jul-26 15:54N 31°58' E 120°24'0 0.0
2017-Jul-26 15:00N 31°58' E 120°24'0 0.0
2017-Jul-26 14:00N 31°58' E 120°24'0 0.0
2017-Jul-26 13:30N 31°58' E 120°24'0 0.0
2017-Jul-26 11:24N 31°58' E 120°24'0 0.0
2017-Jul-26 10:42N 31°58' E 120°24'0 0.0
2017-Jul-26 10:12N 31°58' E 120°24'0 0.0
2017-Jul-26 09:00N 31°58' E 120°24'0 0.0
2017-Jul-26 08:12N 31°58' E 120°24'0 0.0
2017-Jul-26 07:24N 31°58' E 120°24'0 0.0
2017-Jul-26 06:18N 31°58' E 120°24'0 0.0
2017-Jul-26 05:12N 31°58' E 120°24'0 0.0
2017-Jul-26 04:48N 31°58' E 120°24'0 0.0
2017-Jul-26 04:24N 31°58' E 120°24'0 0.0
2017-Jul-26 04:00N 31°58' E 120°24'0 0.0
2017-Jul-26 03:30N 31°58' E 120°24'0 0.0
2017-Jul-26 01:54N 31°58' E 120°24'0 0.0
2017-Jul-26 01:06N 31°58' E 120°24'0 0.0
2017-Jul-26 00:54N 31°58' E 120°24'0 0.0
2017-Jul-26 00:12N 31°58' E 120°24'0 0.0
2017-Jul-25 23:48N 31°58' E 120°24'0 0.0
2017-Jul-25 23:24N 31°58' E 120°24'0 0.0
2017-Jul-25 23:00N 31°58' E 120°24'0 0.0
2017-Jul-25 21:24N 31°58' E 120°24'0 0.0
2017-Jul-25 20:59N 31°58' E 120°24'0 0.0
2017-Jul-25 20:30N 31°58' E 120°24'0 0.0
2017-Jul-25 20:00N 31°58' E 120°24'0 0.0
2017-Jul-25 18:00N 31°58' E 120°24'0 0.0
2017-Jul-25 17:24N 31°58' E 120°24'0 0.0
2017-Jul-25 16:48N 31°58' E 120°24'0 0.0
2017-Jul-25 15:47N 31°58' E 120°24'0 0.0
2017-Jul-25 15:24N 31°58' E 120°24'0 0.0
2017-Jul-25 14:54N 31°58' E 120°24'0 0.0
2017-Jul-25 13:18N 31°58' E 120°24'0 0.0
2017-Jul-25 12:54N 31°58' E 120°24'0 0.0
2017-Jul-25 09:36N 31°58' E 120°24'0 0.0
2017-Jul-25 07:59N 31°58' E 120°24'0 0.0
2017-Jul-25 07:30N 31°58' E 120°24'0 0.0
2017-Jul-25 07:00N 31°58' E 120°24'0 0.0
2017-Jul-25 05:54N 31°58' E 120°24'0 0.0
2017-Jul-25 04:36N 31°58' E 120°24'0 0.0
2017-Jul-25 03:42N 31°58' E 120°24'0 0.0
2017-Jul-25 03:30N 31°58' E 120°24'0 0.0
2017-Jul-25 01:18N 31°58' E 120°24'0 0.0
2017-Jul-25 01:00N 31°58' E 120°24'0 0.0
2017-Jul-25 00:30N 31°58' E 120°24'0 0.0
2017-Jul-24 23:48N 31°58' E 120°24'0 0.0
2017-Jul-24 22:24N 31°58' E 120°24'0 0.0
2017-Jul-24 22:00N 31°58' E 120°24'0 0.0
2017-Jul-24 20:48N 31°58' E 120°24'0 0.0
2017-Jul-24 18:48N 31°58' E 120°24'0 0.0
2017-Jul-24 18:30N 31°58' E 120°24'0 0.0
2017-Jul-24 17:12N 31°58' E 120°24'0 0.0
2017-Jul-24 16:54N 31°58' E 120°24'0 0.0
2017-Jul-24 16:23N 31°58' E 120°24'0 0.0
2017-Jul-24 10:42N 31°58' E 120°24'0 0.0
2017-Jul-24 07:42N 31°58' E 120°24'0 0.0
2017-Jul-24 07:17N 31°58' E 120°24'0 0.0
2017-Jul-24 07:00N 31°58' E 120°24'0 0.0
2017-Jul-24 06:30N 31°58' E 120°24'0 0.0
2017-Jul-24 05:48N 31°58' E 120°24'0 0.0
2017-Jul-24 05:29N 31°58' E 120°24'0 0.0
2017-Jul-24 05:00N 31°58' E 120°24'0 0.0
2017-Jul-24 04:24N 31°58' E 120°24'0 0.0
2017-Jul-24 03:54N 31°58' E 120°24'0 0.0
2017-Jul-24 03:30N 31°58' E 120°24'0 0.0
2017-Jul-24 02:53N 31°58' E 120°24'0 0.0
2017-Jul-24 02:18N 31°58' E 120°24'0 0.0
2017-Jul-24 01:48N 31°58' E 120°24'0 0.0
2017-Jul-24 01:18N 31°58' E 120°24'0 0.0
2017-Jul-23 17:42N 31°58' E 120°24'0 0.0
2017-Jul-23 17:30N 31°58' E 120°24'0 0.0
2017-Jul-23 17:00N 31°58' E 120°24'0 0.0
2017-Jul-23 16:29N 31°58' E 120°24'0 0.0
2017-Jul-23 15:06N 31°58' E 120°24'0 0.0
2017-Jul-23 14:48N 31°58' E 120°24'0 0.0
2017-Jul-23 14:30N 31°58' E 120°24'0 0.0
2017-Jul-23 13:53N 31°58' E 120°24'0 0.0
2017-Jul-23 12:12N 31°58' E 120°24'0 0.0
2017-Jul-23 11:54N 31°58' E 120°24'0 0.0
2017-Jul-23 11:00N 31°58' E 120°24'0 0.0
2017-Jul-23 05:48N 31°58' E 120°24'0 0.0
2017-Jul-23 04:30N 31°58' E 120°24'0 0.0
2017-Jul-23 04:00N 31°58' E 120°24'0 0.0
2017-Jul-23 03:24N 31°58' E 120°24'0 0.0
2017-Jul-23 02:54N 31°58' E 120°24'0 0.0
2017-Jul-23 02:30N 31°58' E 120°24'0 0.0
2017-Jul-23 00:42N 31°58' E 120°24'0 0.0
2017-Jul-23 00:30N 31°58' E 120°24'0 0.0
2017-Jul-22 23:54N 31°58' E 120°24'0 0.0
2017-Jul-22 22:30N 31°58' E 120°24'0 0.0
2017-Jul-22 21:18N 31°58' E 120°24'0 0.0
2017-Jul-22 20:59N 31°58' E 120°24'0 0.0
2017-Jul-22 20:30N 31°58' E 120°24'0 0.0
2017-Jul-22 19:42N 31°58' E 120°24'0 0.0
2017-Jul-22 19:24N 31°58' E 120°24'0 0.0
2017-Jul-22 18:42N 31°58' E 120°24'0 0.0
2017-Jul-22 17:24N 31°58' E 120°24'0 0.0
2017-Jul-22 16:35N 31°58' E 120°24'0 0.0
2017-Jul-22 16:30N 31°58' E 120°24'0 0.0
2017-Jul-22 16:00N 31°58' E 120°24'0 0.0
2017-Jul-22 15:30N 31°58' E 120°24'0 0.0
2017-Jul-22 15:00N 31°58' E 120°24'0 0.0
2017-Jul-22 13:48N 31°58' E 120°24'0 0.0
2017-Jul-22 13:30N 31°58' E 120°24'0 0.0
2017-Jul-22 12:48N 31°58' E 120°24'0 0.0
2017-Jul-22 12:30N 31°58' E 120°24'0 0.0
2017-Jul-22 12:00N 31°58' E 120°24'0 0.0
2017-Jul-22 08:24N 31°58' E 120°24'0 0.0
2017-Jul-22 07:59N 31°58' E 120°24'0 0.0
2017-Jul-22 05:06N 31°58' E 120°24'0 0.0
2017-Jul-22 04:36N 31°58' E 120°24'0 0.0
2017-Jul-22 04:18N 31°58' E 120°24'0 0.0
2017-Jul-22 02:54N 31°58' E 120°24'0 0.0
2017-Jul-22 02:17N 31°58' E 120°24'0 0.0
2017-Jul-22 01:54N 31°58' E 120°24'0 0.0
2017-Jul-22 01:30N 31°58' E 120°24'0 0.0
2017-Jul-22 00:59N 31°58' E 120°24'0 0.0
2017-Jul-21 23:00N 31°58' E 120°24'0 0.0
2017-Jul-21 22:00N 31°58' E 120°24'0 0.0
2017-Jul-21 20:48N 31°58' E 120°24'0 0.0
2017-Jul-21 20:30N 31°58' E 120°24'0 0.0
2017-Jul-21 19:42N 31°58' E 120°24'0 0.0
2017-Jul-21 19:18N 31°58' E 120°24'0 0.0
2017-Jul-21 18:48N 31°58' E 120°24'0 0.0
2017-Jul-21 16:42N 31°58' E 120°24'0 0.0
2017-Jul-21 16:24N 31°58' E 120°24'0 0.0
2017-Jul-21 15:54N 31°58' E 120°24'0 0.0
2017-Jul-21 15:24N 31°58' E 120°24'0 0.0
2017-Jul-21 15:00N 31°58' E 120°24'0 0.0
2017-Jul-21 13:48N 31°58' E 120°24'0 0.0
2017-Jul-21 12:42N 31°58' E 120°24'0 0.0
2017-Jul-21 12:18N 31°58' E 120°24'0 0.0
2017-Jul-21 11:12N 31°58' E 120°24'0 0.0
2017-Jul-21 10:54N 31°58' E 120°24'0 0.0
2017-Jul-21 10:06N 31°58' E 120°24'0 0.0
2017-Jul-21 07:06N 31°58' E 120°24'0 0.0
2017-Jul-21 06:48N 31°58' E 120°24'0 0.0
2017-Jul-21 06:30N 31°58' E 120°24'0 0.0
2017-Jul-21 06:00N 31°58' E 120°24'0 0.0
2017-Jul-21 04:12N 31°58' E 120°24'0 0.0
2017-Jul-21 03:54N 31°58' E 120°24'0 0.0
2017-Jul-21 03:12N 31°58' E 120°24'0 0.0
2017-Jul-21 01:42N 31°58' E 120°24'0 0.0
2017-Jul-21 01:30N 31°58' E 120°24'0 0.0
2017-Jul-21 00:54N 31°58' E 120°24'0 0.0
2017-Jul-21 00:17N 31°58' E 120°24'0 0.0
2017-Jul-20 23:47N 31°58' E 120°24'0 0.0
2017-Jul-20 22:29N 31°58' E 120°24'0 0.0
2017-Jul-20 22:00N 31°58' E 120°24'0 0.0
2017-Jul-20 20:54N 31°58' E 120°24'0 0.0
2017-Jul-20 19:53N 31°58' E 120°24'0 0.0
2017-Jul-20 19:30N 31°58' E 120°24'0 0.0
2017-Jul-20 19:00N 31°58' E 120°24'0 0.0
2017-Jul-20 18:30N 31°58' E 120°24'0 0.0
2017-Jul-20 17:06N 31°58' E 120°24'0 0.0
2017-Jul-20 17:00N 31°58' E 120°24'0 0.0
2017-Jul-20 16:30N 31°58' E 120°24'0 0.0
2017-Jul-20 14:00N 31°58' E 120°24'0 0.0
2017-Jul-20 13:12N 31°58' E 120°24'0 0.0
2017-Jul-20 11:06N 31°58' E 120°24'0 0.1
2017-Jul-20 11:00N 31°58' E 120°24'0 0.0
2017-Jul-20 10:18N 31°58' E 120°24'0 0.0
2017-Jul-20 09:59N 31°58' E 120°24'0 0.0
2017-Jul-20 09:30N 31°58' E 120°24'0 0.0
2017-Jul-20 09:00N 31°58' E 120°24'0 0.0
2017-Jul-20 05:54N 31°58' E 120°24'0 0.0
2017-Jul-20 05:30N 31°58' E 120°24'0 0.0
2017-Jul-20 04:54N 31°58' E 120°24'0 0.0
2017-Jul-20 04:17N 31°58' E 120°24'0 0.0
2017-Jul-20 04:00N 31°58' E 120°24'0 0.0
2017-Jul-20 03:29N 31°58' E 120°24'0 0.0
2017-Jul-20 03:01N 31°58' E 120°24'1 2.9
2017-Jul-20 02:30N 31°58' E 120°26'3 6.8
2017-Jul-20 02:00N 32°02' E 120°27'5 9.5
2017-Jul-20 01:30N 32°01' E 120°32'610.6
2017-Jul-20 00:56N 31°60' E 120°39'510.4
2017-Jul-20 00:29N 32°01' E 120°45'7 9.6
2017-Jul-19 23:44N 31°57' E 120°52'311.6
2017-Jul-19 23:30N 31°54' E 120°53'611.2
2017-Jul-19 23:00N 31°49' E 120°55'5 9.7
2017-Jul-19 22:30N 31°47' E 121°00'2 3.8
2017-Jul-19 22:00N 31°47' E 121°02'0 0.1
2017-Jul-19 21:28N 31°47' E 121°02'0 0.0
2017-Jul-19 20:52N 31°47' E 121°02'0 0.0
2017-Jul-19 20:31N 31°47' E 121°02'0 0.0
2017-Jul-19 20:01N 31°47' E 121°02'0 0.0
2017-Jul-19 19:13N 31°47' E 121°02'0 0.0
2017-Jul-19 18:52N 31°47' E 121°02'0 0.0
2017-Jul-19 18:31N 31°47' E 121°02'0 0.0
2017-Jul-19 18:00N 31°47' E 121°02'0 0.0
2017-Jul-19 17:25N 31°47' E 121°02'0 0.2
2017-Jul-19 16:59N 31°47' E 121°02'4 8.0
2017-Jul-19 16:30N 31°45' E 121°06'612.6
2017-Jul-19 16:00N 31°40' E 121°12'713.3
2017-Jul-19 15:30N 31°36' E 121°17'612.3
2017-Jul-19 15:00N 31°32' E 121°23'5 9.3
2017-Jul-19 14:31N 31°29' E 121°27'4 8.8
2017-Jul-19 14:01N 31°26' E 121°30'4 8.1
2017-Jul-19 13:30N 31°24' E 121°35'510.5
2017-Jul-19 13:00N 31°21' E 121°40'5 9.2
2017-Jul-19 12:31N 31°18' E 121°44'714.3
2017-Jul-19 12:00N 31°12' E 121°49'714.1
2017-Jul-19 11:31N 31°08' E 121°56'611.6
2017-Jul-19 11:01N 31°05' E 122°02'713.8
2017-Jul-19 10:30N 31°03' E 122°09'4 9.0
2017-Jul-19 10:00N 31°03' E 122°15'510.2
2017-Jul-19 09:30N 31°02' E 122°20'4 7.2
2017-Jul-19 09:00N 31°01' E 122°25'4 7.2
2017-Jul-19 08:30N 31°00' E 122°29'5 9.7
2017-Jul-19 08:00N 30°60' E 122°34'4 8.5
2017-Jul-19 07:30N 31°00' E 122°39'0 0.3
2017-Jul-19 06:55N 31°00' E 122°39'0 0.0
2017-Jul-19 06:25N 31°00' E 122°39'0 0.1
2017-Jul-19 05:58N 31°00' E 122°39'0 0.0
2017-Jul-19 05:29N 31°00' E 122°39'0 0.1
2017-Jul-19 04:55N 31°00' E 122°39'0 0.0
2017-Jul-19 04:28N 31°00' E 122°39'0 0.1
2017-Jul-19 03:58N 31°00' E 122°39'0 0.0
2017-Jul-19 03:25N 31°01' E 122°39'0 0.1
2017-Jul-19 02:58N 31°01' E 122°39'0 0.0
2017-Jul-19 02:28N 31°01' E 122°39'0 0.0
2017-Jul-19 01:58N 31°01' E 122°39'0 0.1
2017-Jul-19 01:31N 31°01' E 122°39'1 1.6
2017-Jul-19 01:01N 31°01' E 122°40'2 4.1
2017-Jul-19 00:30N 31°03' E 122°41'510.2
2017-Jul-19 00:00N 31°08' E 122°44'612.5
2017-Jul-18 23:30N 31°14' E 122°45'713.0
2017-Jul-18 23:00N 31°20' E 122°44'713.1
2017-Jul-18 22:30N 31°27' E 122°44'612.5
2017-Jul-18 22:00N 31°33' E 122°44'612.4
2017-Jul-18 21:30N 31°39' E 122°44'612.9
2017-Jul-18 21:01N 31°46' E 122°44'713.4
2017-Jul-18 20:30N 31°52' E 122°44'713.6
2017-Jul-18 20:00N 31°59' E 122°44'713.8
2017-Jul-18 19:30N 32°06' E 122°44'713.8
2017-Jul-18 19:00N 32°13' E 122°44'713.9
2017-Jul-18 18:30N 32°20' E 122°44'714.1
2017-Jul-18 17:59N 32°27' E 122°44'714.1
2017-Jul-18 17:29N 32°34' E 122°44'714.3
2017-Jul-18 17:00N 32°41' E 122°44'714.3
2017-Jul-18 16:30N 32°48' E 122°45'714.2
2017-Jul-18 16:00N 32°56' E 122°45'713.9
2017-Jul-18 15:30N 33°03' E 122°45'713.8
2017-Jul-18 15:00N 33°09' E 122°45'1413.5
2017-Jul-18 13:58N 33°23' E 122°46'1613.0
2017-Jul-18 12:43N 33°40' E 122°46'1013.2
2017-Jul-18 11:56N 33°50' E 122°46'18114.1
2017-Jul-17 23:03N 36°51' E 122°47'315.3
2017-Jul-17 22:52N 36°54' E 122°47'615.4
2017-Jul-17 22:30N 36°60' E 122°47'6413.7
2017-Jul-17 17:50N 37°54' E 122°02'  
Track history (hours):
 
Tides and Currents Weather Stations Pressure Air Temp Water Temp Dewpoint Dewpoint Depression Visibility Wind Speed Wind Dir Waves Ship Positions

Amber Beverly

Last reported at 2017-Jul-27 17:05 UTC. Time now 2017-Aug-18 05:08 UTC.
Position N 30°38' E 123°37'.
Warning: this ship's position is 21 days out of date.

Length 190 m; draft 9.3 m.

Type: Cargo ship. MMSI: 477317100.

Date/timePositionNaut miles runAvg speedWind from/ knotsBaromVisibWave heightAir tempDewpointWater temp
2017-Jul-27 17:05N 30°38' E 123°37'612.3
2017-Jul-27 16:37N 30°42' E 123°32'512.3
2017-Jul-27 16:15N 30°45' E 123°28'512.3
2017-Jul-27 15:49N 30°48' E 123°23'612.4
2017-Jul-27 15:19N 30°51' E 123°16'712.5
2017-Jul-27 14:46N 30°54' E 123°09'1112.9
2017-Jul-27 13:53N 30°58' E 122°57'613.2
2017-Jul-27 13:27N 31°00' E 122°51'614.0
2017-Jul-27 13:00N 31°04' E 122°44'713.7
2017-Jul-27 12:30N 31°05' E 122°37'5 9.9
2017-Jul-27 11:58N 31°05' E 122°30'4 7.6
2017-Jul-27 11:30N 31°05' E 122°26'510.1
2017-Jul-27 11:00N 31°06' E 122°21'612.7
2017-Jul-27 10:30N 31°09' E 122°14'714.3
2017-Jul-27 10:00N 31°13' E 122°07'713.6
2017-Jul-27 09:30N 31°15' E 121°60'511.0
2017-Jul-27 09:01N 31°16' E 121°53'713.7
2017-Jul-27 08:30N 31°18' E 121°46'5 9.1
2017-Jul-27 08:00N 31°20' E 121°41'510.7
2017-Jul-27 07:30N 31°23' E 121°35'4 8.8
2017-Jul-27 07:00N 31°25' E 121°31'3 6.6
2017-Jul-27 06:30N 31°27' E 121°28'3 6.2
2017-Jul-27 06:00N 31°30' E 121°26'611.2
2017-Jul-27 05:30N 31°33' E 121°20'713.2
2017-Jul-27 05:01N 31°38' E 121°15'714.7
2017-Jul-27 04:30N 31°42' E 121°08'814.3
2017-Jul-27 03:58N 31°46' E 121°01'912.5
2017-Jul-27 03:16N 31°52' E 120°53'1511.6
2017-Jul-27 01:56N 31°60' E 120°37'613.9
2017-Jul-27 01:30N 32°02' E 120°31'3 7.0
2017-Jul-27 01:00N 31°60' E 120°27'3 6.5
2017-Jul-27 00:30N 31°58' E 120°24'0 0.0
2017-Jul-26 22:14N 31°58' E 120°24'0 0.0
2017-Jul-26 22:00N 31°58' E 120°24'0 0.0
2017-Jul-26 21:30N 31°58' E 120°24'0 0.0
2017-Jul-26 20:18N 31°58' E 120°24'0 0.0
2017-Jul-26 19:48N 31°58' E 120°24'0 0.0
2017-Jul-26 19:24N 31°58' E 120°24'0 0.0
2017-Jul-26 18:48N 31°58' E 120°24'0 0.0
2017-Jul-26 18:17N 31°58' E 120°24'0 0.0
2017-Jul-26 17:48N 31°58' E 120°24'0 0.0
2017-Jul-26 17:29N 31°58' E 120°24'0 0.0
2017-Jul-26 16:59N 31°58' E 120°24'0 0.0
2017-Jul-26 16:06N 31°58' E 120°24'0 0.0
2017-Jul-26 15:54N 31°58' E 120°24'0 0.0
2017-Jul-26 15:00N 31°58' E 120°24'0 0.0
2017-Jul-26 14:00N 31°58' E 120°24'0 0.0
2017-Jul-26 13:30N 31°58' E 120°24'0 0.0
2017-Jul-26 11:24N 31°58' E 120°24'0 0.0
2017-Jul-26 10:42N 31°58' E 120°24'0 0.0
2017-Jul-26 10:12N 31°58' E 120°24'0 0.0
2017-Jul-26 09:00N 31°58' E 120°24'0 0.0
2017-Jul-26 08:12N 31°58' E 120°24'0 0.0
2017-Jul-26 07:24N 31°58' E 120°24'0 0.0
2017-Jul-26 06:18N 31°58' E 120°24'0 0.0
2017-Jul-26 05:12N 31°58' E 120°24'0 0.0
2017-Jul-26 04:48N 31°58' E 120°24'0 0.0
2017-Jul-26 04:24N 31°58' E 120°24'0 0.0
2017-Jul-26 04:00N 31°58' E 120°24'0 0.0
2017-Jul-26 03:30N 31°58' E 120°24'0 0.0
2017-Jul-26 01:54N 31°58' E 120°24'0 0.0
2017-Jul-26 01:06N 31°58' E 120°24'0 0.0
2017-Jul-26 00:54N 31°58' E 120°24'0 0.0
2017-Jul-26 00:12N 31°58' E 120°24'0 0.0
2017-Jul-25 23:48N 31°58' E 120°24'0 0.0
2017-Jul-25 23:24N 31°58' E 120°24'0 0.0
2017-Jul-25 23:00N 31°58' E 120°24'0 0.0
2017-Jul-25 21:24N 31°58' E 120°24'0 0.0
2017-Jul-25 20:59N 31°58' E 120°24'0 0.0
2017-Jul-25 20:30N 31°58' E 120°24'0 0.0
2017-Jul-25 20:00N 31°58' E 120°24'0 0.0
2017-Jul-25 18:00N 31°58' E 120°24'0 0.0
2017-Jul-25 17:24N 31°58' E 120°24'0 0.0
2017-Jul-25 16:48N 31°58' E 120°24'0 0.0
2017-Jul-25 15:47N 31°58' E 120°24'0 0.0
2017-Jul-25 15:24N 31°58' E 120°24'0 0.0
2017-Jul-25 14:54N 31°58' E 120°24'0 0.0
2017-Jul-25 13:18N 31°58' E 120°24'0 0.0
2017-Jul-25 12:54N 31°58' E 120°24'0 0.0
2017-Jul-25 09:36N 31°58' E 120°24'0 0.0
2017-Jul-25 07:59N 31°58' E 120°24'0 0.0
2017-Jul-25 07:30N 31°58' E 120°24'0 0.0
2017-Jul-25 07:00N 31°58' E 120°24'0 0.0
2017-Jul-25 05:54N 31°58' E 120°24'0 0.0
2017-Jul-25 04:36N 31°58' E 120°24'0 0.0
2017-Jul-25 03:42N 31°58' E 120°24'0 0.0
2017-Jul-25 03:30N 31°58' E 120°24'0 0.0
2017-Jul-25 01:18N 31°58' E 120°24'0 0.0
2017-Jul-25 01:00N 31°58' E 120°24'0 0.0
2017-Jul-25 00:30N 31°58' E 120°24'0 0.0
2017-Jul-24 23:48N 31°58' E 120°24'0 0.0
2017-Jul-24 22:24N 31°58' E 120°24'0 0.0
2017-Jul-24 22:00N 31°58' E 120°24'0 0.0
2017-Jul-24 20:48N 31°58' E 120°24'0 0.0
2017-Jul-24 18:48N 31°58' E 120°24'0 0.0
2017-Jul-24 18:30N 31°58' E 120°24'0 0.0
2017-Jul-24 17:12N 31°58' E 120°24'0 0.0
2017-Jul-24 16:54N 31°58' E 120°24'0 0.0
2017-Jul-24 16:23N 31°58' E 120°24'0 0.0
2017-Jul-24 10:42N 31°58' E 120°24'0 0.0
2017-Jul-24 07:42N 31°58' E 120°24'0 0.0
2017-Jul-24 07:17N 31°58' E 120°24'0 0.0
2017-Jul-24 07:00N 31°58' E 120°24'0 0.0
2017-Jul-24 06:30N 31°58' E 120°24'0 0.0
2017-Jul-24 05:48N 31°58' E 120°24'0 0.0
2017-Jul-24 05:29N 31°58' E 120°24'0 0.0
2017-Jul-24 05:00N 31°58' E 120°24'0 0.0
2017-Jul-24 04:24N 31°58' E 120°24'0 0.0
2017-Jul-24 03:54N 31°58' E 120°24'0 0.0
2017-Jul-24 03:30N 31°58' E 120°24'0 0.0
2017-Jul-24 02:53N 31°58' E 120°24'0 0.0
2017-Jul-24 02:18N 31°58' E 120°24'0 0.0
2017-Jul-24 01:48N 31°58' E 120°24'0 0.0
2017-Jul-24 01:18N 31°58' E 120°24'0 0.0
2017-Jul-23 17:42N 31°58' E 120°24'0 0.0
2017-Jul-23 17:30N 31°58' E 120°24'0 0.0
2017-Jul-23 17:00N 31°58' E 120°24'0 0.0
2017-Jul-23 16:29N 31°58' E 120°24'0 0.0
2017-Jul-23 15:06N 31°58' E 120°24'0 0.0
2017-Jul-23 14:48N 31°58' E 120°24'0 0.0
2017-Jul-23 14:30N 31°58' E 120°24'0 0.0
2017-Jul-23 13:53N 31°58' E 120°24'0 0.0
2017-Jul-23 12:12N 31°58' E 120°24'0 0.0
2017-Jul-23 11:54N 31°58' E 120°24'0 0.0
2017-Jul-23 11:00N 31°58' E 120°24'0 0.0
2017-Jul-23 05:48N 31°58' E 120°24'0 0.0
2017-Jul-23 04:30N 31°58' E 120°24'0 0.0
2017-Jul-23 04:00N 31°58' E 120°24'0 0.0
2017-Jul-23 03:24N 31°58' E 120°24'0 0.0
2017-Jul-23 02:54N 31°58' E 120°24'0 0.0
2017-Jul-23 02:30N 31°58' E 120°24'0 0.0
2017-Jul-23 00:42N 31°58' E 120°24'0 0.0
2017-Jul-23 00:30N 31°58' E 120°24'0 0.0
2017-Jul-22 23:54N 31°58' E 120°24'0 0.0
2017-Jul-22 22:30N 31°58' E 120°24'0 0.0
2017-Jul-22 21:18N 31°58' E 120°24'0 0.0
2017-Jul-22 20:59N 31°58' E 120°24'0 0.0
2017-Jul-22 20:30N 31°58' E 120°24'0 0.0
2017-Jul-22 19:42N 31°58' E 120°24'0 0.0
2017-Jul-22 19:24N 31°58' E 120°24'0 0.0
2017-Jul-22 18:42N 31°58' E 120°24'0 0.0
2017-Jul-22 17:24N 31°58' E 120°24'0 0.0
2017-Jul-22 16:35N 31°58' E 120°24'0 0.0
2017-Jul-22 16:30N 31°58' E 120°24'0 0.0
2017-Jul-22 16:00N 31°58' E 120°24'0 0.0
2017-Jul-22 15:30N 31°58' E 120°24'0 0.0
2017-Jul-22 15:00N 31°58' E 120°24'0 0.0
2017-Jul-22 13:48N 31°58' E 120°24'0 0.0
2017-Jul-22 13:30N 31°58' E 120°24'0 0.0
2017-Jul-22 12:48N 31°58' E 120°24'0 0.0
2017-Jul-22 12:30N 31°58' E 120°24'0 0.0
2017-Jul-22 12:00N 31°58' E 120°24'0 0.0
2017-Jul-22 08:24N 31°58' E 120°24'0 0.0
2017-Jul-22 07:59N 31°58' E 120°24'0 0.0
2017-Jul-22 05:06N 31°58' E 120°24'0 0.0
2017-Jul-22 04:36N 31°58' E 120°24'0 0.0
2017-Jul-22 04:18N 31°58' E 120°24'0 0.0
2017-Jul-22 02:54N 31°58' E 120°24'0 0.0
2017-Jul-22 02:17N 31°58' E 120°24'0 0.0
2017-Jul-22 01:54N 31°58' E 120°24'0 0.0
2017-Jul-22 01:30N 31°58' E 120°24'0 0.0
2017-Jul-22 00:59N 31°58' E 120°24'0 0.0
2017-Jul-21 23:00N 31°58' E 120°24'0 0.0
2017-Jul-21 22:00N 31°58' E 120°24'0 0.0
2017-Jul-21 20:48N 31°58' E 120°24'0 0.0
2017-Jul-21 20:30N 31°58' E 120°24'0 0.0
2017-Jul-21 19:42N 31°58' E 120°24'0 0.0
2017-Jul-21 19:18N 31°58' E 120°24'0 0.0
2017-Jul-21 18:48N 31°58' E 120°24'0 0.0
2017-Jul-21 16:42N 31°58' E 120°24'0 0.0
2017-Jul-21 16:24N 31°58' E 120°24'0 0.0
2017-Jul-21 15:54N 31°58' E 120°24'0 0.0
2017-Jul-21 15:24N 31°58' E 120°24'0 0.0
2017-Jul-21 15:00N 31°58' E 120°24'0 0.0
2017-Jul-21 13:48N 31°58' E 120°24'0 0.0
2017-Jul-21 12:42N 31°58' E 120°24'0 0.0
2017-Jul-21 12:18N 31°58' E 120°24'0 0.0
2017-Jul-21 11:12N 31°58' E 120°24'0 0.0
2017-Jul-21 10:54N 31°58' E 120°24'0 0.0
2017-Jul-21 10:06N 31°58' E 120°24'0 0.0
2017-Jul-21 07:06N 31°58' E 120°24'0 0.0
2017-Jul-21 06:48N 31°58' E 120°24'0 0.0
2017-Jul-21 06:30N 31°58' E 120°24'0 0.0
2017-Jul-21 06:00N 31°58' E 120°24'0 0.0
2017-Jul-21 04:12N 31°58' E 120°24'0 0.0
2017-Jul-21 03:54N 31°58' E 120°24'0 0.0
2017-Jul-21 03:12N 31°58' E 120°24'0 0.0
2017-Jul-21 01:42N 31°58' E 120°24'0 0.0
2017-Jul-21 01:30N 31°58' E 120°24'0 0.0
2017-Jul-21 00:54N 31°58' E 120°24'0 0.0
2017-Jul-21 00:17N 31°58' E 120°24'0 0.0
2017-Jul-20 23:47N 31°58' E 120°24'0 0.0
2017-Jul-20 22:29N 31°58' E 120°24'0 0.0
2017-Jul-20 22:00N 31°58' E 120°24'0 0.0
2017-Jul-20 20:54N 31°58' E 120°24'0 0.0
2017-Jul-20 19:53N 31°58' E 120°24'0 0.0
2017-Jul-20 19:30N 31°58' E 120°24'0 0.0
2017-Jul-20 19:00N 31°58' E 120°24'0 0.0
2017-Jul-20 18:30N 31°58' E 120°24'0 0.0
2017-Jul-20 17:06N 31°58' E 120°24'0 0.0
2017-Jul-20 17:00N 31°58' E 120°24'0 0.0
2017-Jul-20 16:30N 31°58' E 120°24'0 0.0
2017-Jul-20 14:00N 31°58' E 120°24'0 0.0
2017-Jul-20 13:12N 31°58' E 120°24'0 0.0
2017-Jul-20 11:06N 31°58' E 120°24'0 0.1
2017-Jul-20 11:00N 31°58' E 120°24'0 0.0
2017-Jul-20 10:18N 31°58' E 120°24'0 0.0
2017-Jul-20 09:59N 31°58' E 120°24'0 0.0
2017-Jul-20 09:30N 31°58' E 120°24'0 0.0
2017-Jul-20 09:00N 31°58' E 120°24'0 0.0
2017-Jul-20 05:54N 31°58' E 120°24'0 0.0
2017-Jul-20 05:30N 31°58' E 120°24'0 0.0
2017-Jul-20 04:54N 31°58' E 120°24'0 0.0
2017-Jul-20 04:17N 31°58' E 120°24'0 0.0
2017-Jul-20 04:00N 31°58' E 120°24'0 0.0
2017-Jul-20 03:29N 31°58' E 120°24'0 0.0
2017-Jul-20 03:01N 31°58' E 120°24'1 2.9
2017-Jul-20 02:30N 31°58' E 120°26'3 6.8
2017-Jul-20 02:00N 32°02' E 120°27'5 9.5
2017-Jul-20 01:30N 32°01' E 120°32'610.6
2017-Jul-20 00:56N 31°60' E 120°39'510.4
2017-Jul-20 00:29N 32°01' E 120°45'7 9.6
2017-Jul-19 23:44N 31°57' E 120°52'311.6
2017-Jul-19 23:30N 31°54' E 120°53'611.2
2017-Jul-19 23:00N 31°49' E 120°55'5 9.7
2017-Jul-19 22:30N 31°47' E 121°00'2 3.8
2017-Jul-19 22:00N 31°47' E 121°02'0 0.1
2017-Jul-19 21:28N 31°47' E 121°02'0 0.0
2017-Jul-19 20:52N 31°47' E 121°02'0 0.0
2017-Jul-19 20:31N 31°47' E 121°02'0 0.0
2017-Jul-19 20:01N 31°47' E 121°02'0 0.0
2017-Jul-19 19:13N 31°47' E 121°02'0 0.0
2017-Jul-19 18:52N 31°47' E 121°02'0 0.0
2017-Jul-19 18:31N 31°47' E 121°02'0 0.0
2017-Jul-19 18:00N 31°47' E 121°02'0 0.0
2017-Jul-19 17:25N 31°47' E 121°02'0 0.2
2017-Jul-19 16:59N 31°47' E 121°02'4 8.0
2017-Jul-19 16:30N 31°45' E 121°06'612.6
2017-Jul-19 16:00N 31°40' E 121°12'713.3
2017-Jul-19 15:30N 31°36' E 121°17'612.3
2017-Jul-19 15:00N 31°32' E 121°23'5 9.3
2017-Jul-19 14:31N 31°29' E 121°27'4 8.8
2017-Jul-19 14:01N 31°26' E 121°30'4 8.1
2017-Jul-19 13:30N 31°24' E 121°35'510.5
2017-Jul-19 13:00N 31°21' E 121°40'5 9.2
2017-Jul-19 12:31N 31°18' E 121°44'714.3
2017-Jul-19 12:00N 31°12' E 121°49'714.1
2017-Jul-19 11:31N 31°08' E 121°56'611.6
2017-Jul-19 11:01N 31°05' E 122°02'713.8
2017-Jul-19 10:30N 31°03' E 122°09'4 9.0
2017-Jul-19 10:00N 31°03' E 122°15'510.2
2017-Jul-19 09:30N 31°02' E 122°20'4 7.2
2017-Jul-19 09:00N 31°01' E 122°25'4 7.2
2017-Jul-19 08:30N 31°00' E 122°29'5 9.7
2017-Jul-19 08:00N 30°60' E 122°34'4 8.5
2017-Jul-19 07:30N 31°00' E 122°39'0 0.3
2017-Jul-19 06:55N 31°00' E 122°39'0 0.0
2017-Jul-19 06:25N 31°00' E 122°39'0 0.1
2017-Jul-19 05:58N 31°00' E 122°39'0 0.0
2017-Jul-19 05:29N 31°00' E 122°39'0 0.1
2017-Jul-19 04:55N 31°00' E 122°39'0 0.0
2017-Jul-19 04:28N 31°00' E 122°39'0 0.1
2017-Jul-19 03:58N 31°00' E 122°39'0 0.0
2017-Jul-19 03:25N 31°01' E 122°39'0 0.1
2017-Jul-19 02:58N 31°01' E 122°39'0 0.0
2017-Jul-19 02:28N 31°01' E 122°39'0 0.0
2017-Jul-19 01:58N 31°01' E 122°39'0 0.1
2017-Jul-19 01:31N 31°01' E 122°39'1 1.6
2017-Jul-19 01:01N 31°01' E 122°40'2 4.1
2017-Jul-19 00:30N 31°03' E 122°41'510.2
2017-Jul-19 00:00N 31°08' E 122°44'612.5
2017-Jul-18 23:30N 31°14' E 122°45'713.0
2017-Jul-18 23:00N 31°20' E 122°44'713.1
2017-Jul-18 22:30N 31°27' E 122°44'612.5
2017-Jul-18 22:00N 31°33' E 122°44'612.4
2017-Jul-18 21:30N 31°39' E 122°44'612.9
2017-Jul-18 21:01N 31°46' E 122°44'713.4
2017-Jul-18 20:30N 31°52' E 122°44'713.6
2017-Jul-18 20:00N 31°59' E 122°44'713.8
2017-Jul-18 19:30N 32°06' E 122°44'713.8
2017-Jul-18 19:00N 32°13' E 122°44'713.9
2017-Jul-18 18:30N 32°20' E 122°44'714.1
2017-Jul-18 17:59N 32°27' E 122°44'714.1
2017-Jul-18 17:29N 32°34' E 122°44'714.3
2017-Jul-18 17:00N 32°41' E 122°44'714.3
2017-Jul-18 16:30N 32°48' E 122°45'714.2
2017-Jul-18 16:00N 32°56' E 122°45'713.9
2017-Jul-18 15:30N 33°03' E 122°45'713.8
2017-Jul-18 15:00N 33°09' E 122°45'1413.5
2017-Jul-18 13:58N 33°23' E 122°46'1613.0
2017-Jul-18 12:43N 33°40' E 122°46'1013.2
2017-Jul-18 11:56N 33°50' E 122°46'18114.1
2017-Jul-17 23:03N 36°51' E 122°47'315.3
2017-Jul-17 22:52N 36°54' E 122°47'615.4
2017-Jul-17 22:30N 36°60' E 122°47'6413.7
2017-Jul-17 17:50N 37°54' E 122°02'  

Dump ship's entire track history